Time;durP1;ratioP1;P1;durP2;ratioP2;P2;SDS_P1;SDS_P2;PMS_P1;PMS_P2;Temp;Humidity;BMP_temperature;BMP_pressure;BME280_temperature;BME280_humidity;BME280_pressure;Samples;Min_cycle;Max_cycle;Signal;HPM_P1;HPM_P2
2022/01/15 00:00:30;;;;;;;37.33;23.33;;;6.90;99.90;;;;;;5017662;28;20033;-74
2022/01/15 00:02:56;;;;;;;36.70;22.70;;;6.90;99.90;;;;;;5010772;28;20366;-73
2022/01/15 00:05:22;;;;;;;35.47;22.67;;;6.90;99.90;;;;;;5022927;28;20042;-74
2022/01/15 00:07:48;;;;;;;34.63;22.42;;;6.90;99.90;;;;;;5019969;28;20124;-74
2022/01/15 00:10:16;;;;;;;37.55;22.63;;;6.90;99.90;;;;;;5017353;28;20164;-74
2022/01/15 00:12:42;;;;;;;38.85;22.75;;;6.90;99.90;;;;;;5006580;28;20453;-73
2022/01/15 00:15:18;;;;;;;35.30;23.15;;;6.90;99.90;;;;;;5016572;28;20069;-74
2022/01/15 00:20:10;;;;;;;41.17;24.35;;;6.90;99.90;;;;;;5010560;28;20045;-73
2022/01/15 00:22:36;;;;;;;41.50;23.63;;;6.90;99.90;;;;;;5009731;28;20088;-74
2022/01/15 00:25:02;;;;;;;38.05;23.20;;;6.90;99.90;;;;;;5008226;28;20034;-74
2022/01/15 00:27:27;;;;;;;37.25;24.02;;;6.90;99.90;;;;;;5008064;28;20508;-74
2022/01/15 00:29:53;;;;;;;41.30;23.67;;;6.90;99.90;;;;;;5009196;28;20046;-74
2022/01/15 00:32:18;;;;;;;37.97;21.73;;;6.80;99.90;;;;;;5010202;28;20596;-74
2022/01/15 00:34:44;;;;;;;34.70;22.17;;;6.90;99.90;;;;;;5008975;28;20046;-73
2022/01/15 00:37:09;;;;;;;35.35;21.50;;;6.90;99.90;;;;;;5014630;28;20436;-74
2022/01/15 00:39:36;;;;;;;35.00;21.30;;;6.90;99.90;;;;;;5010096;28;20038;-73
2022/01/15 00:42:02;;;;;;;32.13;21.63;;;6.90;99.90;;;;;;5008976;28;20080;-73
2022/01/15 00:44:28;;;;;;;31.90;21.00;;;6.90;99.90;;;;;;5010790;28;20077;-74
2022/01/15 00:46:53;;;;;;;35.25;20.83;;;6.80;99.90;;;;;;5009803;28;20053;-73
2022/01/15 00:49:19;;;;;;;31.92;20.58;;;6.80;99.90;;;;;;5016889;28;20045;-73
2022/01/15 00:51:45;;;;;;;32.53;21.17;;;6.80;99.90;;;;;;5009573;28;20048;-73
2022/01/15 00:54:11;;;;;;;32.40;20.58;;;6.80;99.90;;;;;;5009047;28;20128;-73
2022/01/15 00:56:36;;;;;;;31.05;20.98;;;6.80;99.90;;;;;;5009421;28;20398;-73
2022/01/15 00:59:02;;;;;;;38.67;22.77;;;6.80;99.90;;;;;;5010927;28;20437;-74
2022/01/15 01:01:28;;;;;;;35.28;22.70;;;6.80;99.90;;;;;;5010009;28;20165;-73
2022/01/15 01:03:54;;;;;;;32.50;21.40;;;6.80;99.90;;;;;;5005045;28;20128;-73
2022/01/15 01:06:20;;;;;;;34.28;22.25;;;6.80;99.90;;;;;;5005670;28;20046;-73
2022/01/15 01:08:45;;;;;;;31.77;21.17;;;6.80;99.90;;;;;;5006471;28;20481;-73
2022/01/15 01:11:13;;;;;;;31.92;21.08;;;6.80;99.90;;;;;;5009200;28;20400;-73
2022/01/15 01:24:16;;;;;;;37.80;22.67;;;6.80;99.90;;;;;;5011202;28;20045;-73
2022/01/15 01:26:52;;;;;;;34.13;23.02;;;6.80;99.90;;;;;;5007919;28;20048;-73
2022/01/15 01:32:02;;;;;;;40.83;22.50;;;6.80;99.90;;;;;;5016120;28;20145;-73
2022/01/15 01:34:30;;;;;;;34.20;21.38;;;6.80;99.90;;;;;;5008904;28;20037;-73
2022/01/15 01:39:35;;;;;;;33.97;20.83;;;6.80;99.90;;;;;;5008370;28;20416;-73
2022/01/15 01:42:13;;;;;;;34.30;21.10;;;6.80;99.90;;;;;;5001327;28;20072;-73
2022/01/15 01:44:42;;;;;;;32.42;20.60;;;6.80;99.90;;;;;;5007899;28;20050;-73
2022/01/15 01:47:23;;;;;;;33.88;21.08;;;6.80;99.90;;;;;;5008189;28;20038;-73
2022/01/15 01:49:49;;;;;;;32.17;19.70;;;6.80;99.90;;;;;;5006266;28;20046;-73
2022/01/15 01:52:15;;;;;;;31.70;20.75;;;6.80;99.90;;;;;;4999376;28;20418;-74
2022/01/15 01:54:41;;;;;;;34.13;20.58;;;6.80;99.90;;;;;;5011084;28;20053;-73
2022/01/15 01:57:06;;;;;;;31.33;20.15;;;6.80;99.90;;;;;;5009148;28;20107;-73
2022/01/15 01:59:32;;;;;;;33.53;21.20;;;6.70;99.90;;;;;;5007072;28;20670;-73
2022/01/15 02:01:58;;;;;;;29.42;20.25;;;6.70;99.90;;;;;;5011576;28;20056;-73
2022/01/15 02:04:24;;;;;;;31.60;20.38;;;6.80;99.90;;;;;;5004038;28;20417;-73
2022/01/15 02:06:50;;;;;;;32.03;21.08;;;6.80;99.90;;;;;;5007173;28;20527;-73
2022/01/15 02:09:20;;;;;;;28.67;19.85;;;6.80;99.90;;;;;;5009293;28;20049;-73
2022/01/15 02:11:45;;;;;;;31.85;20.10;;;6.80;99.90;;;;;;5007449;28;20489;-73
2022/01/15 02:14:24;;;;;;;34.78;21.40;;;6.70;99.90;;;;;;5009139;28;20065;-74
2022/01/15 02:16:50;;;;;;;30.85;19.30;;;6.80;99.90;;;;;;5017653;28;20116;-73
2022/01/15 02:19:15;;;;;;;33.47;20.73;;;6.80;99.90;;;;;;5007793;28;20850;-73
2022/01/15 02:24:12;;;;;;;29.73;20.38;;;6.80;99.90;;;;;;5008200;28;20070;-73
2022/01/15 02:26:39;;;;;;;31.67;20.90;;;6.80;99.90;;;;;;5011216;28;20061;-73
2022/01/15 02:29:07;;;;;;;33.17;20.88;;;6.70;99.90;;;;;;5005060;28;20511;-73
2022/01/15 02:31:34;;;;;;;31.33;19.80;;;6.70;99.90;;;;;;5018484;28;20171;-74
2022/01/15 02:34:03;;;;;;;31.08;19.80;;;6.70;99.90;;;;;;5007335;28;20519;-74
2022/01/15 02:36:34;;;;;;;31.65;20.88;;;6.70;99.90;;;;;;5007238;28;20137;-73
2022/01/15 02:39:00;;;;;;;33.05;20.23;;;6.70;99.90;;;;;;5003826;28;20125;-73
2022/01/15 02:41:35;;;;;;;34.17;20.33;;;6.70;99.90;;;;;;5008088;28;20168;-73
2022/01/15 02:44:02;;;;;;;28.10;18.70;;;6.70;99.90;;;;;;5007018;28;20040;-73
2022/01/15 02:48:59;;;;;;;30.75;20.33;;;6.70;99.90;;;;;;5017076;28;20456;-73
2022/01/15 02:51:33;;;;;;;33.15;20.00;;;6.70;99.90;;;;;;5011979;28;20413;-73
2022/01/15 02:53:58;;;;;;;31.70;20.42;;;6.70;99.90;;;;;;5009639;28;20058;-73
2022/01/15 02:56:35;;;;;;;34.38;21.35;;;6.70;99.90;;;;;;5011959;28;20042;-72
2022/01/15 02:59:03;;;;;;;29.45;19.35;;;6.70;99.90;;;;;;5010113;28;20033;-73
2022/01/15 03:01:29;;;;;;;32.35;19.67;;;6.70;99.90;;;;;;5007418;28;20472;-73
2022/01/15 03:03:54;;;;;;;36.60;21.02;;;6.70;99.90;;;;;;5012665;28;20099;-73
2022/01/15 03:06:20;;;;;;;36.22;20.67;;;6.70;99.90;;;;;;5010215;28;20050;-73
2022/01/15 03:08:49;;;;;;;32.53;20.15;;;6.80;99.90;;;;;;5010292;28;20056;-73
2022/01/15 03:11:15;;;;;;;33.38;20.17;;;6.70;99.90;;;;;;5012809;28;20574;-72
2022/01/15 03:13:41;;;;;;;34.53;20.88;;;6.70;99.90;;;;;;5007578;28;20046;-73
2022/01/15 03:16:09;;;;;;;30.10;19.48;;;6.70;99.90;;;;;;5024316;28;20054;-73
2022/01/15 03:18:35;;;;;;;28.52;19.75;;;6.70;99.90;;;;;;5014736;28;20041;-74
2022/01/15 03:21:00;;;;;;;31.38;20.20;;;6.70;99.90;;;;;;5022622;28;20058;-73
2022/01/15 03:23:26;;;;;;;30.38;19.92;;;6.70;99.90;;;;;;5009875;28;20554;-73
2022/01/15 03:25:53;;;;;;;30.83;19.88;;;6.70;99.90;;;;;;5009350;28;20050;-73
2022/01/15 03:28:18;;;;;;;30.52;20.23;;;6.70;99.90;;;;;;5010125;28;20132;-73
2022/01/15 03:30:44;;;;;;;31.88;20.25;;;6.70;99.90;;;;;;5018886;28;20049;-73
2022/01/15 03:33:10;;;;;;;34.50;21.23;;;6.70;99.90;;;;;;5013175;28;20133;-73
2022/01/15 03:35:38;;;;;;;35.45;21.55;;;6.70;99.90;;;;;;5019252;28;20496;-73
2022/01/15 03:38:05;;;;;;;32.95;20.23;;;6.70;99.90;;;;;;5027599;28;20052;-74
2022/01/15 03:40:31;;;;;;;;;;;6.70;99.90;;;;;;5009854;28;20156;-74
2022/01/15 03:42:57;;;;;;;28.10;17.83;;;6.70;99.90;;;;;;5008007;28;20020;-73
2022/01/15 03:45:23;;;;;;;26.60;17.00;;;6.70;99.90;;;;;;5016402;28;20082;-73
2022/01/15 03:47:49;;;;;;;31.65;18.92;;;6.70;99.90;;;;;;5009153;28;20049;-73
2022/01/15 03:50:16;;;;;;;27.65;18.25;;;6.70;99.90;;;;;;5009779;28;20117;-74
2022/01/15 03:52:42;;;;;;;29.92;19.02;;;6.70;99.90;;;;;;5007266;28;20084;-73
2022/01/15 03:55:09;;;;;;;30.15;20.05;;;6.70;99.90;;;;;;5010916;28;20069;-73
2022/01/15 03:57:36;;;;;;;32.50;21.38;;;6.70;99.90;;;;;;4998601;28;20492;-74
2022/01/15 04:00:09;;;;;;;32.07;19.10;;;6.70;99.90;;;;;;5009586;28;20077;-73
2022/01/15 04:02:35;;;;;;;29.83;19.20;;;6.70;99.90;;;;;;5002597;28;20312;-73
2022/01/15 04:05:01;;;;;;;30.52;18.60;;;6.70;99.90;;;;;;5008785;28;20425;-73
2022/01/15 04:07:26;;;;;;;26.50;17.35;;;6.70;99.90;;;;;;5009668;28;20100;-73
2022/01/15 04:09:52;;;;;;;28.73;18.25;;;6.70;99.90;;;;;;5008949;28;20104;-73
2022/01/15 04:12:17;;;;;;;28.23;18.65;;;6.70;99.90;;;;;;5008586;28;20050;-73
2022/01/15 04:14:43;;;;;;;28.90;18.70;;;6.70;99.90;;;;;;5010792;28;20044;-74
2022/01/15 04:17:08;;;;;;;24.10;15.57;;;6.70;99.90;;;;;;5013856;28;20065;-73
2022/01/15 04:19:35;;;;;;;25.83;16.27;;;6.70;99.90;;;;;;5010119;28;20054;-74
2022/01/15 04:22:02;;;;;;;22.55;14.77;;;6.70;99.90;;;;;;5007381;28;20153;-74
2022/01/15 04:24:27;;;;;;;22.08;15.05;;;6.70;99.90;;;;;;5010613;28;20050;-73
2022/01/15 04:26:53;;;;;;;23.92;14.70;;;6.70;99.90;;;;;;5009290;28;20728;-73
2022/01/15 04:29:20;;;;;;;19.27;13.45;;;6.60;99.90;;;;;;5006932;28;20064;-73
2022/01/15 04:31:50;;;;;;;19.52;12.13;;;6.60;99.90;;;;;;4997908;28;20049;-73
2022/01/15 04:34:20;;;;;;;14.40;9.80;;;6.60;99.90;;;;;;5009385;28;20044;-73
2022/01/15 04:36:46;;;;;;;15.13;9.98;;;6.60;99.90;;;;;;5007509;28;20049;-74
2022/01/15 04:39:12;;;;;;;15.88;9.95;;;6.60;99.90;;;;;;5014853;28;20048;-74
2022/01/15 04:41:38;;;;;;;16.73;10.57;;;6.60;99.90;;;;;;5007228;28;20353;-74
2022/01/15 04:44:05;;;;;;;18.60;12.25;;;6.60;99.90;;;;;;5009353;28;20038;-74
2022/01/15 04:46:32;;;;;;;19.58;12.65;;;6.60;99.90;;;;;;5018542;28;20080;-73
2022/01/15 04:48:57;;;;;;;20.93;13.20;;;6.60;99.90;;;;;;5007614;28;20105;-73
2022/01/15 04:51:23;;;;;;;19.73;13.20;;;6.60;99.90;;;;;;5015286;28;20301;-74
2022/01/15 04:53:48;;;;;;;17.25;11.70;;;6.60;99.90;;;;;;5006229;28;20053;-73
2022/01/15 04:56:14;;;;;;;17.30;11.07;;;6.60;99.90;;;;;;5010798;28;20535;-74
2022/01/15 04:58:40;;;;;;;16.65;11.27;;;6.60;99.90;;;;;;5004950;28;20132;-74
2022/01/15 05:01:05;;;;;;;17.20;10.95;;;6.60;99.90;;;;;;5007428;28;20050;-72
2022/01/15 05:03:32;;;;;;;16.52;11.32;;;6.60;99.90;;;;;;4999536;28;20049;-73
2022/01/15 05:05:58;;;;;;;21.17;11.35;;;6.60;99.90;;;;;;5013400;28;20435;-74
2022/01/15 05:08:24;;;;;;;19.05;12.02;;;6.70;99.90;;;;;;5021335;28;20406;-73
2022/01/15 05:10:50;;;;;;;18.40;12.35;;;6.60;99.90;;;;;;5008775;28;20069;-73
2022/01/15 05:13:16;;;;;;;17.63;11.90;;;6.60;99.90;;;;;;5005162;28;20069;-72
2022/01/15 05:15:45;;;;;;;20.00;12.68;;;6.60;99.90;;;;;;5014395;28;20049;-73
2022/01/15 05:18:11;;;;;;;19.83;13.80;;;6.60;99.90;;;;;;5013069;28;20053;-73
2022/01/15 05:20:41;;;;;;;17.65;12.77;;;6.50;99.90;;;;;;5008520;28;20053;-73
2022/01/15 05:23:06;;;;;;;22.42;14.40;;;6.60;99.90;;;;;;5008874;28;20053;-73
2022/01/15 05:25:32;;;;;;;20.88;14.68;;;6.60;99.90;;;;;;5013734;28;20049;-73
2022/01/15 05:27:58;;;;;;;22.60;14.82;;;6.60;99.90;;;;;;5016076;28;20049;-74
2022/01/15 05:30:23;;;;;;;24.05;15.77;;;6.50;99.90;;;;;;5007325;28;20374;-73
2022/01/15 05:32:49;;;;;;;21.80;14.65;;;6.60;99.90;;;;;;5007214;28;20046;-73
2022/01/15 05:35:14;;;;;;;23.05;15.23;;;6.60;99.90;;;;;;5012297;28;20521;-73
2022/01/15 05:37:40;;;;;;;21.58;14.75;;;6.60;99.90;;;;;;5010599;28;20121;-74
2022/01/15 05:40:07;;;;;;;19.80;13.85;;;6.50;99.90;;;;;;5013033;28;20107;-74
2022/01/15 05:42:33;;;;;;;19.43;13.43;;;6.50;99.90;;;;;;5035722;28;20388;-74
2022/01/15 05:44:58;;;;;;;19.67;13.00;;;6.50;99.90;;;;;;5006215;28;20065;-73
2022/01/15 05:47:24;;;;;;;18.58;13.10;;;6.50;99.90;;;;;;5007883;28;20049;-73
2022/01/15 05:49:51;;;;;;;19.63;13.88;;;6.50;99.90;;;;;;5004992;28;20489;-73
2022/01/15 05:52:16;;;;;;;23.55;16.55;;;6.50;99.90;;;;;;5005550;28;20052;-73
2022/01/15 05:54:42;;;;;;;26.17;17.98;;;6.50;99.90;;;;;;5016713;28;20037;-73
2022/01/15 05:57:08;;;;;;;21.88;16.05;;;6.50;99.90;;;;;;5009688;28;20053;-73
2022/01/15 05:59:34;;;;;;;24.42;15.15;;;6.50;99.90;;;;;;5006256;28;20038;-73
2022/01/15 06:02:00;;;;;;;22.60;15.63;;;6.50;99.90;;;;;;5007405;28;20493;-73
2022/01/15 06:04:25;;;;;;;22.92;15.95;;;6.50;99.90;;;;;;5009363;28;20049;-73
2022/01/15 06:06:51;;;;;;;24.05;16.20;;;6.50;99.90;;;;;;5006040;28;20168;-73
2022/01/15 06:09:17;;;;;;;23.90;16.13;;;6.50;99.90;;;;;;5016178;28;20577;-73
2022/01/15 06:11:43;;;;;;;22.15;15.35;;;6.50;99.90;;;;;;5016934;28;20752;-73
2022/01/15 06:14:09;;;;;;;23.02;15.90;;;6.50;99.90;;;;;;5012663;28;20037;-73
2022/01/15 06:16:36;;;;;;;22.05;15.10;;;6.50;99.90;;;;;;5005998;28;20378;-73
2022/01/15 06:19:02;;;;;;;21.05;14.90;;;6.50;99.90;;;;;;5007823;28;20128;-73
2022/01/15 06:21:28;;;;;;;23.92;15.60;;;6.50;99.90;;;;;;5018518;28;20057;-74
2022/01/15 06:23:53;;;;;;;22.75;14.68;;;6.50;99.90;;;;;;5007659;28;20424;-73
2022/01/15 06:26:19;;;;;;;23.70;14.85;;;6.50;99.90;;;;;;5008902;28;20049;-73
2022/01/15 06:28:45;;;;;;;24.42;15.07;;;6.50;99.90;;;;;;5006254;28;20049;-73
2022/01/15 06:31:10;;;;;;;21.60;14.95;;;6.50;99.90;;;;;;5007341;28;20092;-73
2022/01/15 06:33:36;;;;;;;20.90;14.95;;;6.50;99.90;;;;;;5013905;28;20041;-73
2022/01/15 06:36:02;;;;;;;22.30;14.73;;;6.50;99.90;;;;;;5022952;28;20720;-73
2022/01/15 06:38:28;;;;;;;22.15;15.35;;;6.50;99.90;;;;;;5006502;28;20068;-74
2022/01/15 06:40:53;;;;;;;30.02;21.38;;;6.40;99.90;;;;;;5006309;28;20041;-73
2022/01/15 06:43:19;;;;;;;42.10;28.52;;;6.50;99.90;;;;;;5006905;28;20052;-74
2022/01/15 06:45:45;;;;;;;42.42;30.45;;;6.50;99.90;;;;;;5005268;28;20046;-74
2022/01/15 06:48:10;;;;;;;42.10;32.88;;;6.50;99.90;;;;;;5008056;28;20100;-73
2022/01/15 06:50:37;;;;;;;45.78;33.08;;;6.50;99.90;;;;;;5013531;28;20040;-73
2022/01/15 06:53:03;;;;;;;40.92;29.58;;;6.50;99.90;;;;;;5006209;28;20056;-74
2022/01/15 06:55:29;;;;;;;27.63;20.73;;;6.50;99.90;;;;;;5008608;28;20041;-73
2022/01/15 06:57:56;;;;;;;23.38;17.02;;;6.50;99.90;;;;;;5006914;28;20046;-73
2022/01/15 07:00:21;;;;;;;24.38;16.77;;;6.50;99.90;;;;;;5013202;28;21697;-73
2022/01/15 07:02:47;;;;;;;21.98;13.95;;;6.50;99.90;;;;;;5009424;28;20050;-74
2022/01/15 07:05:13;;;;;;;17.67;12.48;;;6.50;99.90;;;;;;5008386;28;20053;-73
2022/01/15 07:07:44;;;;;;;18.17;12.75;;;6.50;99.90;;;;;;5005975;28;20477;-73
2022/01/15 07:10:10;;;;;;;14.27;9.32;;;6.50;99.90;;;;;;5010981;28;20116;-73
2022/01/15 07:12:36;;;;;;;12.90;9.15;;;6.50;99.90;;;;;;5007756;28;20054;-73
2022/01/15 07:15:02;;;;;;;13.27;8.75;;;6.50;99.90;;;;;;5013131;28;20378;-74
2022/01/15 07:17:27;;;;;;;12.93;8.98;;;6.40;99.90;;;;;;5007155;28;20073;-73
2022/01/15 07:19:53;;;;;;;13.05;9.27;;;6.40;99.90;;;;;;5004478;28;20147;-73
2022/01/15 07:22:19;;;;;;;16.75;12.07;;;6.50;99.90;;;;;;5009892;28;20053;-73
2022/01/15 07:24:44;;;;;;;19.92;14.38;;;6.50;99.90;;;;;;5010013;28;20042;-74
2022/01/15 07:27:10;;;;;;;19.63;13.57;;;6.50;99.90;;;;;;5003629;28;20056;-74
2022/01/15 07:29:37;;;;;;;20.17;13.20;;;6.50;99.90;;;;;;5004342;28;20109;-73
2022/01/15 07:32:04;;;;;;;;;;;6.40;99.90;;;;;;5005228;28;20065;-73
2022/01/15 07:34:29;;;;;;;20.02;12.55;;;6.40;99.90;;;;;;5007250;28;20015;-72
2022/01/15 07:36:57;;;;;;;20.17;13.30;;;6.40;99.90;;;;;;5007761;28;20109;-72
2022/01/15 07:39:23;;;;;;;;;;;6.40;99.90;;;;;;5005700;28;20053;-72
2022/01/15 07:41:49;;;;;;;20.58;13.45;;;6.40;99.90;;;;;;5007469;28;19940;-73
2022/01/15 07:44:15;;;;;;;19.48;13.35;;;6.40;99.90;;;;;;5010030;28;20036;-73
2022/01/15 07:46:40;;;;;;;23.88;15.43;;;6.40;99.90;;;;;;5013001;28;20096;-71
2022/01/15 07:49:06;;;;;;;23.15;15.07;;;6.40;99.90;;;;;;5014068;28;20143;-72
2022/01/15 07:51:32;;;;;;;23.50;15.18;;;6.40;99.90;;;;;;5017840;28;20132;-72
2022/01/15 07:53:59;;;;;;;24.73;15.73;;;6.40;99.90;;;;;;5008614;28;20045;-71
2022/01/15 07:56:24;;;;;;;25.33;16.80;;;6.40;99.90;;;;;;5007095;28;20432;-72
2022/01/15 07:58:53;;;;;;;26.95;16.50;;;6.40;99.90;;;;;;5007861;28;20053;-72
2022/01/15 08:01:19;;;;;;;27.15;17.05;;;6.40;99.90;;;;;;5006241;28;20507;-71
2022/01/15 08:03:45;;;;;;;24.75;15.43;;;6.40;99.90;;;;;;5012440;28;20104;-72
2022/01/15 08:06:11;;;;;;;23.48;15.60;;;6.40;99.90;;;;;;5012069;28;20054;-72
2022/01/15 08:08:37;;;;;;;24.27;15.82;;;6.40;99.90;;;;;;5010971;28;20037;-72
2022/01/15 08:11:03;;;;;;;26.05;15.85;;;6.40;99.90;;;;;;5036276;28;20120;-72
2022/01/15 08:13:32;;;;;;;24.90;15.95;;;6.40;99.90;;;;;;5013353;28;20073;-72
2022/01/15 08:16:01;;;;;;;23.48;15.43;;;6.40;99.90;;;;;;4999584;28;20113;-72
2022/01/15 08:18:28;;;;;;;26.42;16.30;;;6.40;99.90;;;;;;5002022;28;21873;-72
2022/01/15 08:20:54;;;;;;;22.38;15.30;;;6.40;99.90;;;;;;5006919;28;20057;-72
2022/01/15 08:23:20;;;;;;;23.83;15.07;;;6.40;99.90;;;;;;5007403;28;20056;-71
2022/01/15 08:25:46;;;;;;;23.58;15.88;;;6.40;99.90;;;;;;5005677;28;20041;-72
2022/01/15 08:28:15;;;;;;;20.10;14.32;;;6.40;99.90;;;;;;5005025;28;20135;-72
2022/01/15 08:30:40;;;;;;;24.50;15.95;;;6.40;99.90;;;;;;5005917;28;20045;-72
2022/01/15 08:33:06;;;;;;;19.40;13.88;;;6.40;99.90;;;;;;5007067;28;20057;-72
2022/01/15 08:35:32;;;;;;;19.77;12.68;;;6.40;99.90;;;;;;5007783;28;20081;-72
2022/01/15 08:38:01;;;;;;;20.60;13.20;;;6.40;99.90;;;;;;5007842;28;20050;-72
2022/01/15 08:40:27;;;;;;;17.63;12.38;;;6.40;99.90;;;;;;5009621;28;20085;-72
2022/01/15 08:42:53;;;;;;;19.75;13.10;;;6.40;99.90;;;;;;5007644;28;20317;-72
2022/01/15 08:45:19;;;;;;;18.98;13.32;;;6.40;99.90;;;;;;5012501;28;20049;-72
2022/01/15 08:47:46;;;;;;;16.30;11.55;;;6.40;99.90;;;;;;5017972;28;20057;-72
2022/01/15 08:50:15;;;;;;;15.52;11.05;;;6.40;99.90;;;;;;5007520;28;20041;-72
2022/01/15 08:52:42;;;;;;;17.48;11.38;;;6.40;99.90;;;;;;5009408;28;20046;-72
2022/01/15 08:55:08;;;;;;;16.50;12.00;;;6.40;99.90;;;;;;5008431;28;20050;-72
2022/01/15 08:57:35;;;;;;;16.13;11.88;;;6.40;99.90;;;;;;5008494;28;20034;-71
2022/01/15 09:00:04;;;;;;;16.42;12.13;;;6.40;99.90;;;;;;5007079;28;20038;-72
2022/01/15 09:02:29;;;;;;;17.65;12.73;;;6.40;99.90;;;;;;5013702;28;20077;-72
2022/01/15 09:04:55;;;;;;;17.00;13.15;;;6.40;99.90;;;;;;5007728;28;20486;-72
2022/01/15 09:07:21;;;;;;;18.63;13.95;;;6.40;99.90;;;;;;5006542;28;20057;-72
2022/01/15 09:09:46;;;;;;;17.27;13.40;;;6.40;99.90;;;;;;5004489;28;20509;-73
2022/01/15 09:12:13;;;;;;;17.20;13.15;;;6.40;99.90;;;;;;5011285;28;20059;-72
2022/01/15 09:14:39;;;;;;;18.13;14.43;;;6.40;99.90;;;;;;5002667;28;20042;-72
2022/01/15 09:17:05;;;;;;;16.00;13.68;;;6.40;99.90;;;;;;5022819;28;20105;-72
2022/01/15 09:19:32;;;;;;;15.27;13.13;;;6.40;99.90;;;;;;5008398;28;20053;-71
2022/01/15 09:21:58;;;;;;;17.08;14.50;;;6.30;99.90;;;;;;5007973;28;20097;-74
2022/01/15 09:24:23;;;;;;;17.25;14.07;;;6.40;99.90;;;;;;5009515;28;20050;-71
2022/01/15 09:32:06;;;;;;;14.57;12.85;;;6.40;99.90;;;;;;5009783;28;20050;-73
2022/01/15 09:34:34;;;;;;;15.55;13.75;;;6.40;99.90;;;;;;5009016;28;20057;-73
2022/01/15 09:37:00;;;;;;;17.95;14.52;;;6.40;99.90;;;;;;5009104;28;20511;-74
2022/01/15 09:39:26;;;;;;;18.17;14.82;;;6.40;99.90;;;;;;5008511;28;20145;-73
2022/01/15 09:41:54;;;;;;;21.00;15.73;;;6.40;99.90;;;;;;5008641;28;20125;-72
2022/01/15 09:44:22;;;;;;;20.83;15.40;;;6.40;99.90;;;;;;5006389;28;20060;-72
2022/01/15 09:46:48;;;;;;;19.73;15.75;;;6.40;99.90;;;;;;5006170;28;20050;-71
2022/01/15 09:49:15;;;;;;;21.52;16.00;;;6.30;99.90;;;;;;5009347;28;20096;-72
2022/01/15 09:51:42;;;;;;;21.73;16.92;;;6.40;99.90;;;;;;5008915;28;20053;-73
2022/01/15 09:54:08;;;;;;;24.23;18.05;;;6.40;99.90;;;;;;5009395;28;20042;-73
2022/01/15 09:56:34;;;;;;;22.73;17.10;;;6.40;99.90;;;;;;5006956;28;20370;-73
2022/01/15 09:59:02;;;;;;;23.80;17.65;;;6.40;99.90;;;;;;5007463;28;20149;-74
2022/01/15 10:01:29;;;;;;;23.85;17.80;;;6.40;99.90;;;;;;5010433;28;20085;-74
2022/01/15 10:03:57;;;;;;;27.40;18.27;;;6.40;99.90;;;;;;5007457;28;20409;-72
2022/01/15 10:06:23;;;;;;;26.13;19.67;;;6.40;99.90;;;;;;5004348;28;20539;-73
2022/01/15 10:09:04;;;;;;;24.95;18.92;;;6.40;99.90;;;;;;5005543;28;20054;-72
2022/01/15 10:11:41;;;;;;;26.33;18.67;;;6.40;99.90;;;;;;5008582;28;20053;-74
2022/01/15 10:14:30;;;;;;;26.35;18.60;;;6.40;99.90;;;;;;5024344;28;20061;-73
2022/01/15 10:16:57;;;;;;;26.92;19.60;;;6.40;99.90;;;;;;5022529;28;20046;-73
2022/01/15 10:19:32;;;;;;;29.83;20.30;;;6.40;99.90;;;;;;5007854;28;20058;-74
2022/01/15 10:22:24;;;;;;;28.38;21.27;;;6.40;99.90;;;;;;5007050;28;20035;-73
2022/01/15 10:24:57;;;;;;;27.70;20.30;;;6.40;99.90;;;;;;5001487;28;20061;-74
2022/01/15 10:27:31;;;;;;;27.38;20.38;;;6.40;99.90;;;;;;4995958;28;20276;-74
2022/01/15 10:30:08;;;;;;;26.27;20.02;;;6.40;99.90;;;;;;5006012;28;20095;-73
2022/01/15 10:32:55;;;;;;;28.02;20.48;;;6.40;99.90;;;;;;5007082;28;20080;-73
2022/01/15 10:35:22;;;;;;;;;;;6.40;99.90;;;;;;5000004;28;20062;-73
2022/01/15 10:37:50;;;;;;;;;;;6.30;99.90;;;;;;5006702;28;19921;-72
2022/01/15 10:40:16;;;;;;;26.05;20.80;;;6.30;99.90;;;;;;5006705;28;20541;-72
2022/01/15 10:42:50;;;;;;;27.65;20.63;;;6.30;99.90;;;;;;5004855;28;20152;-73
2022/01/15 10:45:17;;;;;;;26.38;20.33;;;6.40;99.90;;;;;;5005729;28;20493;-73
2022/01/15 10:47:50;;;;;;;24.67;19.23;;;6.40;99.90;;;;;;5007800;28;20045;-72
2022/01/15 10:50:24;;;;;;;24.08;18.52;;;6.40;99.90;;;;;;5008382;28;20042;-73
2022/01/15 10:52:50;;;;;;;22.85;17.40;;;6.40;99.90;;;;;;5004266;28;20046;-73
2022/01/15 10:55:17;;;;;;;21.23;17.45;;;6.30;99.90;;;;;;5007817;28;20100;-73
2022/01/15 10:57:46;;;;;;;20.65;16.70;;;6.30;99.90;;;;;;5006044;28;20057;-73
2022/01/15 11:00:17;;;;;;;20.38;15.57;;;6.30;99.90;;;;;;5008199;28;20056;-74
2022/01/15 11:02:58;;;;;;;18.88;14.95;;;6.30;99.90;;;;;;5005466;28;20469;-74
2022/01/15 11:05:37;;;;;;;18.70;14.77;;;6.30;99.90;;;;;;5007108;28;20064;-74
2022/01/15 11:08:07;;;;;;;17.20;14.57;;;6.30;99.90;;;;;;5011035;28;20072;-73
2022/01/15 11:10:59;;;;;;;17.02;14.13;;;6.30;99.90;;;;;;5009918;28;20542;-73
2022/01/15 11:13:33;;;;;;;21.42;15.75;;;6.30;99.90;;;;;;5010907;28;20140;-74
2022/01/15 11:16:08;;;;;;;17.40;14.60;;;6.30;99.90;;;;;;5010421;28;20556;-73
2022/01/15 11:18:39;;;;;;;16.88;14.32;;;6.30;99.90;;;;;;5008317;28;20119;-73
2022/01/15 11:21:07;;;;;;;17.35;13.85;;;6.30;99.90;;;;;;5013844;28;20140;-74
2022/01/15 11:23:34;;;;;;;15.55;13.88;;;6.30;99.90;;;;;;5010299;28;20065;-73
2022/01/15 11:26:06;;;;;;;14.13;12.63;;;6.40;99.90;;;;;;5008757;28;20050;-73
2022/01/15 11:28:33;;;;;;;14.38;12.75;;;6.30;99.90;;;;;;4995304;28;20628;-74
2022/01/15 11:31:03;;;;;;;14.15;11.93;;;6.30;99.90;;;;;;5010157;28;20418;-74
2022/01/15 11:33:32;;;;;;;14.88;12.18;;;6.30;99.90;;;;;;5008447;28;20133;-74
2022/01/15 11:35:59;;;;;;;14.70;12.38;;;6.20;99.90;;;;;;5009629;28;20533;-73
2022/01/15 11:38:47;;;;;;;13.38;11.98;;;6.20;99.90;;;;;;5008972;28;20053;-73
2022/01/15 11:41:28;;;;;;;15.93;13.27;;;6.30;99.90;;;;;;5008504;28;20042;-72
2022/01/15 11:43:54;;;;;;;15.90;13.38;;;6.30;99.90;;;;;;5008484;28;20046;-78
2022/01/15 11:46:44;;;;;;;16.27;14.10;;;6.30;99.90;;;;;;5009565;28;20064;-73
2022/01/15 11:49:32;;;;;;;17.10;14.23;;;6.30;99.90;;;;;;5010795;28;20042;-73
2022/01/15 11:52:22;;;;;;;16.88;14.70;;;6.30;99.90;;;;;;4991326;28;20053;-73
2022/01/15 11:54:51;;;;;;;16.92;15.07;;;6.30;99.90;;;;;;5003635;28;20100;-74
2022/01/15 11:57:22;;;;;;;18.60;15.93;;;6.20;99.90;;;;;;5009968;28;20147;-71
2022/01/15 11:59:55;;;;;;;18.10;15.75;;;6.30;99.90;;;;;;5008649;28;20050;-72
2022/01/15 12:02:26;;;;;;;18.83;16.42;;;6.20;99.90;;;;;;5010825;28;20050;-73
2022/01/15 12:04:51;;;;;;;18.50;16.45;;;6.20;99.90;;;;;;4997432;28;20045;-72
2022/01/15 12:07:20;;;;;;;20.05;17.58;;;6.20;99.90;;;;;;5010165;28;20057;-75
2022/01/15 12:09:47;;;;;;;21.38;18.10;;;6.20;99.90;;;;;;5007931;28;20046;-74
2022/01/15 12:14:52;;;;;;;26.63;23.65;;;6.30;99.90;;;;;;5004992;28;20000;-72
2022/01/15 12:17:39;;;;;;;23.58;19.55;;;6.30;99.90;;;;;;4990715;28;20177;-71
2022/01/15 12:20:32;;;;;;;20.58;18.25;;;6.30;99.90;;;;;;5007914;28;20058;-72
2022/01/15 12:23:18;;;;;;;23.10;20.67;;;6.40;99.90;;;;;;5008974;28;20462;-71
2022/01/15 12:25:48;;;;;;;76.80;61.03;;;6.30;99.90;;;;;;5007941;28;20057;-72
2022/01/15 12:28:15;;;;;;;42.50;34.58;;;6.40;99.90;;;;;;5009506;28;20041;-72
2022/01/15 12:30:46;;;;;;;67.22;55.60;;;6.40;99.90;;;;;;5006779;28;20054;-71
2022/01/15 12:33:14;;;;;;;28.00;23.90;;;6.40;99.90;;;;;;5009094;28;20389;-72
2022/01/15 12:35:40;;;;;;;;;;;6.40;99.90;;;;;;5009830;28;20052;-73
2022/01/15 12:38:15;;;;;;;18.67;16.67;;;6.40;99.90;;;;;;5009390;28;19922;-72
2022/01/15 12:40:43;;;;;;;20.52;18.35;;;6.40;99.90;;;;;;5008307;28;20069;-72
2022/01/15 12:43:12;;;;;;;20.63;18.52;;;6.40;99.90;;;;;;5010169;28;20404;-73
2022/01/15 12:45:39;;;;;;;20.38;18.05;;;6.30;99.90;;;;;;5007894;28;20049;-72
2022/01/15 12:48:09;;;;;;;20.08;17.95;;;6.30;99.90;;;;;;5008508;28;20382;-72
2022/01/15 12:50:46;;;;;;;20.10;17.80;;;6.30;99.90;;;;;;5007721;28;20081;-73
2022/01/15 12:53:13;;;;;;;22.92;20.50;;;6.30;99.90;;;;;;5010159;28;20046;-73
2022/01/15 12:55:40;;;;;;;19.60;17.60;;;6.30;99.90;;;;;;5011130;28;20100;-72
2022/01/15 12:58:07;;;;;;;19.65;17.45;;;6.30;99.90;;;;;;5008200;28;20544;-74
2022/01/15 13:00:38;;;;;;;21.38;19.02;;;6.30;99.90;;;;;;5006756;28;20497;-72
2022/01/15 13:03:09;;;;;;;32.20;27.15;;;6.30;99.90;;;;;;5008762;28;20050;-72
2022/01/15 13:05:37;;;;;;;21.73;17.45;;;6.30;99.90;;;;;;5007148;28;20481;-72
2022/01/15 13:08:04;;;;;;;19.90;17.67;;;6.30;99.90;;;;;;5007918;28;20036;-71
2022/01/15 13:10:31;;;;;;;19.85;16.90;;;6.30;99.90;;;;;;5009265;28;20045;-71
2022/01/15 13:12:57;;;;;;;19.77;16.83;;;6.20;99.90;;;;;;5008678;28;20054;-70